sensor_id;sensor_type;location;lat;lon;timestamp;P1;durP1;ratioP1;P2;durP2;ratioP2
46439;SDS011;32138;50.966;6.968;2023-06-22T00:00:29;5.18;;;4.68;;
46439;SDS011;32138;50.966;6.968;2023-06-22T00:02:00;6.38;;;5.25;;
46439;SDS011;32138;50.966;6.968;2023-06-22T00:03:30;6.85;;;4.68;;
46439;SDS011;32138;50.966;6.968;2023-06-22T00:05:01;7.93;;;5.05;;
46439;SDS011;32138;50.966;6.968;2023-06-22T00:06:32;7.60;;;4.78;;
46439;SDS011;32138;50.966;6.968;2023-06-22T00:08:03;5.88;;;5.22;;
46439;SDS011;32138;50.966;6.968;2023-06-22T00:09:35;6.25;;;5.10;;
46439;SDS011;32138;50.966;6.968;2023-06-22T00:11:05;6.07;;;5.47;;
46439;SDS011;32138;50.966;6.968;2023-06-22T00:12:36;8.82;;;5.15;;
46439;SDS011;32138;50.966;6.968;2023-06-22T00:14:07;6.10;;;4.90;;
46439;SDS011;32138;50.966;6.968;2023-06-22T00:15:39;6.00;;;4.65;;
46439;SDS011;32138;50.966;6.968;2023-06-22T00:17:11;6.55;;;4.82;;
46439;SDS011;32138;50.966;6.968;2023-06-22T00:18:42;7.15;;;5.75;;
46439;SDS011;32138;50.966;6.968;2023-06-22T00:20:16;8.05;;;4.68;;
46439;SDS011;32138;50.966;6.968;2023-06-22T00:21:48;9.05;;;5.45;;
46439;SDS011;32138;50.966;6.968;2023-06-22T00:23:23;5.75;;;4.82;;
46439;SDS011;32138;50.966;6.968;2023-06-22T00:24:55;5.53;;;4.05;;
46439;SDS011;32138;50.966;6.968;2023-06-22T00:26:26;6.78;;;4.57;;
46439;SDS011;32138;50.966;6.968;2023-06-22T00:27:56;7.35;;;4.82;;
46439;SDS011;32138;50.966;6.968;2023-06-22T00:29:27;5.60;;;4.68;;
46439;SDS011;32138;50.966;6.968;2023-06-22T00:30:58;6.13;;;4.85;;
46439;SDS011;32138;50.966;6.968;2023-06-22T00:32:30;8.10;;;4.90;;
46439;SDS011;32138;50.966;6.968;2023-06-22T00:34:01;4.82;;;4.25;;
46439;SDS011;32138;50.966;6.968;2023-06-22T00:35:32;5.07;;;4.55;;
46439;SDS011;32138;50.966;6.968;2023-06-22T00:37:02;6.85;;;4.32;;
46439;SDS011;32138;50.966;6.968;2023-06-22T00:38:34;5.60;;;4.20;;
46439;SDS011;32138;50.966;6.968;2023-06-22T00:40:10;5.32;;;4.75;;
46439;SDS011;32138;50.966;6.968;2023-06-22T00:41:41;5.35;;;4.45;;
46439;SDS011;32138;50.966;6.968;2023-06-22T00:43:12;5.45;;;4.82;;
46439;SDS011;32138;50.966;6.968;2023-06-22T00:44:43;5.38;;;4.40;;
46439;SDS011;32138;50.966;6.968;2023-06-22T00:46:15;5.65;;;4.20;;
46439;SDS011;32138;50.966;6.968;2023-06-22T00:47:46;5.10;;;4.45;;
46439;SDS011;32138;50.966;6.968;2023-06-22T00:49:16;5.95;;;4.88;;
46439;SDS011;32138;50.966;6.968;2023-06-22T00:50:47;5.25;;;4.20;;
46439;SDS011;32138;50.966;6.968;2023-06-22T00:52:21;6.28;;;5.28;;
46439;SDS011;32138;50.966;6.968;2023-06-22T00:53:57;4.63;;;4.13;;
46439;SDS011;32138;50.966;6.968;2023-06-22T00:55:29;6.03;;;5.07;;
46439;SDS011;32138;50.966;6.968;2023-06-22T00:57:00;4.93;;;4.45;;
46439;SDS011;32138;50.966;6.968;2023-06-22T00:58:30;6.68;;;4.25;;
46439;SDS011;32138;50.966;6.968;2023-06-22T01:00:02;5.25;;;4.50;;
46439;SDS011;32138;50.966;6.968;2023-06-22T01:01:50;5.30;;;4.13;;
46439;SDS011;32138;50.966;6.968;2023-06-22T01:03:20;4.30;;;3.90;;
46439;SDS011;32138;50.966;6.968;2023-06-22T01:04:51;4.68;;;3.72;;
46439;SDS011;32138;50.966;6.968;2023-06-22T01:06:26;5.68;;;4.55;;
46439;SDS011;32138;50.966;6.968;2023-06-22T01:12:06;10.00;;;4.97;;
46439;SDS011;32138;50.966;6.968;2023-06-22T01:15:31;5.78;;;4.60;;
46439;SDS011;32138;50.966;6.968;2023-06-22T01:17:08;5.20;;;4.22;;
46439;SDS011;32138;50.966;6.968;2023-06-22T01:18:43;5.13;;;4.28;;
46439;SDS011;32138;50.966;6.968;2023-06-22T01:20:14;5.80;;;4.22;;
46439;SDS011;32138;50.966;6.968;2023-06-22T01:21:46;7.63;;;4.82;;
46439;SDS011;32138;50.966;6.968;2023-06-22T01:25:24;5.25;;;4.60;;
46439;SDS011;32138;50.966;6.968;2023-06-22T01:29:11;8.20;;;4.97;;
46439;SDS011;32138;50.966;6.968;2023-06-22T01:30:45;5.03;;;4.05;;
46439;SDS011;32138;50.966;6.968;2023-06-22T01:32:16;4.95;;;3.90;;
46439;SDS011;32138;50.966;6.968;2023-06-22T01:33:50;5.85;;;4.68;;
46439;SDS011;32138;50.966;6.968;2023-06-22T01:35:25;6.90;;;4.63;;
46439;SDS011;32138;50.966;6.968;2023-06-22T01:36:57;6.35;;;4.95;;
46439;SDS011;32138;50.966;6.968;2023-06-22T01:38:29;4.70;;;4.28;;
46439;SDS011;32138;50.966;6.968;2023-06-22T01:40:01;6.10;;;4.88;;
46439;SDS011;32138;50.966;6.968;2023-06-22T01:41:35;8.77;;;5.03;;
46439;SDS011;32138;50.966;6.968;2023-06-22T01:43:08;6.70;;;4.95;;
46439;SDS011;32138;50.966;6.968;2023-06-22T01:44:39;6.63;;;4.97;;
46439;SDS011;32138;50.966;6.968;2023-06-22T01:46:10;7.03;;;4.78;;
46439;SDS011;32138;50.966;6.968;2023-06-22T01:47:42;5.53;;;4.00;;
46439;SDS011;32138;50.966;6.968;2023-06-22T01:49:13;7.60;;;5.20;;
46439;SDS011;32138;50.966;6.968;2023-06-22T01:50:44;6.03;;;4.88;;
46439;SDS011;32138;50.966;6.968;2023-06-22T01:52:15;8.88;;;5.32;;
46439;SDS011;32138;50.966;6.968;2023-06-22T01:53:46;4.88;;;4.35;;
46439;SDS011;32138;50.966;6.968;2023-06-22T01:55:17;5.35;;;4.38;;
46439;SDS011;32138;50.966;6.968;2023-06-22T01:56:48;8.50;;;4.80;;
46439;SDS011;32138;50.966;6.968;2023-06-22T01:58:20;8.07;;;5.22;;
46439;SDS011;32138;50.966;6.968;2023-06-22T01:59:59;6.30;;;4.90;;
46439;SDS011;32138;50.966;6.968;2023-06-22T02:01:42;7.30;;;5.18;;
46439;SDS011;32138;50.966;6.968;2023-06-22T02:03:23;7.18;;;4.45;;
46439;SDS011;32138;50.966;6.968;2023-06-22T02:06:37;5.47;;;4.97;;
46439;SDS011;32138;50.966;6.968;2023-06-22T02:08:10;6.00;;;4.65;;
46439;SDS011;32138;50.966;6.968;2023-06-22T02:09:49;6.53;;;4.90;;
46439;SDS011;32138;50.966;6.968;2023-06-22T02:11:23;5.50;;;4.93;;
46439;SDS011;32138;50.966;6.968;2023-06-22T02:12:57;6.90;;;4.15;;
46439;SDS011;32138;50.966;6.968;2023-06-22T02:14:29;6.80;;;4.57;;
46439;SDS011;32138;50.966;6.968;2023-06-22T02:16:00;6.65;;;5.13;;
46439;SDS011;32138;50.966;6.968;2023-06-22T02:17:31;5.10;;;4.18;;
46439;SDS011;32138;50.966;6.968;2023-06-22T02:19:03;5.63;;;4.53;;
46439;SDS011;32138;50.966;6.968;2023-06-22T02:20:36;6.07;;;4.32;;
46439;SDS011;32138;50.966;6.968;2023-06-22T02:22:08;6.05;;;4.30;;
46439;SDS011;32138;50.966;6.968;2023-06-22T02:23:39;6.90;;;4.78;;
46439;SDS011;32138;50.966;6.968;2023-06-22T02:25:10;7.15;;;4.93;;
46439;SDS011;32138;50.966;6.968;2023-06-22T02:26:41;5.65;;;4.05;;
46439;SDS011;32138;50.966;6.968;2023-06-22T02:28:15;4.82;;;4.25;;
46439;SDS011;32138;50.966;6.968;2023-06-22T02:29:45;7.80;;;4.75;;
46439;SDS011;32138;50.966;6.968;2023-06-22T02:31:16;6.53;;;4.55;;
46439;SDS011;32138;50.966;6.968;2023-06-22T02:32:48;5.95;;;4.18;;
46439;SDS011;32138;50.966;6.968;2023-06-22T02:34:19;5.28;;;4.45;;
46439;SDS011;32138;50.966;6.968;2023-06-22T02:35:50;7.47;;;4.85;;
46439;SDS011;32138;50.966;6.968;2023-06-22T02:37:20;5.45;;;4.10;;
46439;SDS011;32138;50.966;6.968;2023-06-22T02:38:55;4.72;;;4.13;;
46439;SDS011;32138;50.966;6.968;2023-06-22T02:40:29;6.32;;;4.32;;
46439;SDS011;32138;50.966;6.968;2023-06-22T02:42:00;6.00;;;4.22;;
46439;SDS011;32138;50.966;6.968;2023-06-22T02:43:31;5.15;;;4.22;;
46439;SDS011;32138;50.966;6.968;2023-06-22T02:45:01;6.53;;;4.95;;
46439;SDS011;32138;50.966;6.968;2023-06-22T02:46:32;4.93;;;4.10;;
46439;SDS011;32138;50.966;6.968;2023-06-22T02:48:04;4.90;;;4.35;;
46439;SDS011;32138;50.966;6.968;2023-06-22T02:49:35;5.45;;;4.68;;
46439;SDS011;32138;50.966;6.968;2023-06-22T02:51:06;5.68;;;4.70;;
46439;SDS011;32138;50.966;6.968;2023-06-22T02:52:37;4.40;;;4.00;;
46439;SDS011;32138;50.966;6.968;2023-06-22T02:54:09;6.93;;;4.53;;
46439;SDS011;32138;50.966;6.968;2023-06-22T02:55:39;7.75;;;4.68;;
46439;SDS011;32138;50.966;6.968;2023-06-22T02:57:10;8.38;;;4.78;;
46439;SDS011;32138;50.966;6.968;2023-06-22T02:58:43;7.35;;;4.78;;
46439;SDS011;32138;50.966;6.968;2023-06-22T03:00:14;4.38;;;3.67;;
46439;SDS011;32138;50.966;6.968;2023-06-22T03:01:48;6.10;;;4.25;;
46439;SDS011;32138;50.966;6.968;2023-06-22T03:03:20;5.60;;;4.30;;
46439;SDS011;32138;50.966;6.968;2023-06-22T03:04:50;6.38;;;3.60;;
46439;SDS011;32138;50.966;6.968;2023-06-22T03:06:23;6.82;;;4.75;;
46439;SDS011;32138;50.966;6.968;2023-06-22T03:07:58;6.18;;;4.97;;
46439;SDS011;32138;50.966;6.968;2023-06-22T03:09:29;7.32;;;4.47;;
46439;SDS011;32138;50.966;6.968;2023-06-22T03:10:59;6.57;;;4.38;;
46439;SDS011;32138;50.966;6.968;2023-06-22T03:12:30;4.95;;;3.90;;
46439;SDS011;32138;50.966;6.968;2023-06-22T03:14:01;5.97;;;4.47;;
46439;SDS011;32138;50.966;6.968;2023-06-22T03:15:32;6.28;;;4.10;;
46439;SDS011;32138;50.966;6.968;2023-06-22T03:17:03;5.53;;;4.20;;
46439;SDS011;32138;50.966;6.968;2023-06-22T03:18:35;5.88;;;4.78;;
46439;SDS011;32138;50.966;6.968;2023-06-22T03:20:05;5.68;;;5.03;;
46439;SDS011;32138;50.966;6.968;2023-06-22T03:21:44;5.75;;;4.28;;
46439;SDS011;32138;50.966;6.968;2023-06-22T03:23:14;5.40;;;4.47;;
46439;SDS011;32138;50.966;6.968;2023-06-22T03:24:45;4.50;;;4.10;;
46439;SDS011;32138;50.966;6.968;2023-06-22T03:26:16;6.68;;;4.25;;
46439;SDS011;32138;50.966;6.968;2023-06-22T03:27:48;5.35;;;4.82;;
46439;SDS011;32138;50.966;6.968;2023-06-22T03:29:19;6.60;;;4.75;;
46439;SDS011;32138;50.966;6.968;2023-06-22T03:30:49;162.63;;;147.75;;
46439;SDS011;32138;50.966;6.968;2023-06-22T03:32:20;265.25;;;242.77;;
46439;SDS011;32138;50.966;6.968;2023-06-22T03:33:51;161.25;;;147.27;;
46439;SDS011;32138;50.966;6.968;2023-06-22T03:35:22;55.25;;;50.17;;
46439;SDS011;32138;50.966;6.968;2023-06-22T03:36:52;23.65;;;21.35;;
46439;SDS011;32138;50.966;6.968;2023-06-22T03:38:23;11.27;;;9.00;;
46439;SDS011;32138;50.966;6.968;2023-06-22T03:39:54;11.82;;;9.48;;
46439;SDS011;32138;50.966;6.968;2023-06-22T03:41:25;9.30;;;7.97;;
46439;SDS011;32138;50.966;6.968;2023-06-22T03:42:55;9.43;;;7.78;;
46439;SDS011;32138;50.966;6.968;2023-06-22T03:44:26;8.70;;;7.70;;
46439;SDS011;32138;50.966;6.968;2023-06-22T03:45:57;7.50;;;5.80;;
46439;SDS011;32138;50.966;6.968;2023-06-22T03:47:28;8.02;;;5.28;;
46439;SDS011;32138;50.966;6.968;2023-06-22T03:48:59;6.35;;;5.53;;
46439;SDS011;32138;50.966;6.968;2023-06-22T03:50:29;6.03;;;5.13;;
46439;SDS011;32138;50.966;6.968;2023-06-22T03:52:01;6.63;;;5.00;;
46439;SDS011;32138;50.966;6.968;2023-06-22T03:53:33;6.80;;;4.72;;
46439;SDS011;32138;50.966;6.968;2023-06-22T03:55:03;8.32;;;4.75;;
46439;SDS011;32138;50.966;6.968;2023-06-22T03:56:35;7.28;;;4.65;;
46439;SDS011;32138;50.966;6.968;2023-06-22T03:58:07;6.65;;;5.00;;
46439;SDS011;32138;50.966;6.968;2023-06-22T03:59:39;5.82;;;5.13;;
46439;SDS011;32138;50.966;6.968;2023-06-22T04:01:10;6.38;;;4.57;;
46439;SDS011;32138;50.966;6.968;2023-06-22T04:02:41;6.00;;;4.53;;
46439;SDS011;32138;50.966;6.968;2023-06-22T04:04:12;6.35;;;4.63;;
46439;SDS011;32138;50.966;6.968;2023-06-22T04:05:43;7.05;;;4.88;;
46439;SDS011;32138;50.966;6.968;2023-06-22T04:07:15;5.93;;;4.75;;
46439;SDS011;32138;50.966;6.968;2023-06-22T04:08:46;7.60;;;5.28;;
46439;SDS011;32138;50.966;6.968;2023-06-22T04:10:21;6.93;;;5.18;;
46439;SDS011;32138;50.966;6.968;2023-06-22T04:11:51;5.85;;;4.72;;
46439;SDS011;32138;50.966;6.968;2023-06-22T04:13:22;5.57;;;4.80;;
46439;SDS011;32138;50.966;6.968;2023-06-22T04:14:53;7.95;;;5.22;;
46439;SDS011;32138;50.966;6.968;2023-06-22T04:16:23;5.32;;;4.80;;
46439;SDS011;32138;50.966;6.968;2023-06-22T04:17:54;7.28;;;5.07;;
46439;SDS011;32138;50.966;6.968;2023-06-22T04:19:26;6.82;;;5.05;;
46439;SDS011;32138;50.966;6.968;2023-06-22T04:20:56;5.90;;;5.13;;
46439;SDS011;32138;50.966;6.968;2023-06-22T04:22:27;6.05;;;5.45;;
46439;SDS011;32138;50.966;6.968;2023-06-22T04:23:58;7.30;;;6.30;;
46439;SDS011;32138;50.966;6.968;2023-06-22T04:25:29;5.93;;;4.75;;
46439;SDS011;32138;50.966;6.968;2023-06-22T04:26:59;5.60;;;5.00;;
46439;SDS011;32138;50.966;6.968;2023-06-22T04:28:32;7.38;;;5.72;;
46439;SDS011;32138;50.966;6.968;2023-06-22T04:30:06;7.43;;;5.90;;
46439;SDS011;32138;50.966;6.968;2023-06-22T04:31:38;8.05;;;5.97;;
46439;SDS011;32138;50.966;6.968;2023-06-22T04:33:08;8.55;;;6.88;;
46439;SDS011;32138;50.966;6.968;2023-06-22T04:34:39;11.75;;;7.63;;
46439;SDS011;32138;50.966;6.968;2023-06-22T04:36:10;7.72;;;7.03;;
46439;SDS011;32138;50.966;6.968;2023-06-22T04:37:43;16.02;;;14.57;;
46439;SDS011;32138;50.966;6.968;2023-06-22T04:39:18;101.95;;;92.65;;
46439;SDS011;32138;50.966;6.968;2023-06-22T04:40:49;28.15;;;25.42;;
46439;SDS011;32138;50.966;6.968;2023-06-22T04:42:20;15.82;;;14.32;;
46439;SDS011;32138;50.966;6.968;2023-06-22T04:43:51;10.13;;;8.73;;
46439;SDS011;32138;50.966;6.968;2023-06-22T04:45:23;11.68;;;9.18;;
46439;SDS011;32138;50.966;6.968;2023-06-22T04:46:57;10.85;;;9.10;;
46439;SDS011;32138;50.966;6.968;2023-06-22T04:48:38;8.60;;;7.80;;
46439;SDS011;32138;50.966;6.968;2023-06-22T04:50:08;10.20;;;8.63;;
46439;SDS011;32138;50.966;6.968;2023-06-22T04:51:40;10.00;;;8.55;;
46439;SDS011;32138;50.966;6.968;2023-06-22T04:53:12;9.68;;;8.48;;
46439;SDS011;32138;50.966;6.968;2023-06-22T04:54:42;9.20;;;7.88;;
46439;SDS011;32138;50.966;6.968;2023-06-22T04:56:25;10.52;;;8.38;;
46439;SDS011;32138;50.966;6.968;2023-06-22T04:57:58;10.35;;;9.23;;
46439;SDS011;32138;50.966;6.968;2023-06-22T04:59:34;18.88;;;11.85;;
46439;SDS011;32138;50.966;6.968;2023-06-22T05:01:06;15.40;;;10.77;;
46439;SDS011;32138;50.966;6.968;2023-06-22T05:02:38;21.67;;;12.48;;
46439;SDS011;32138;50.966;6.968;2023-06-22T05:04:10;22.20;;;12.30;;
46439;SDS011;32138;50.966;6.968;2023-06-22T05:05:41;20.50;;;10.63;;
46439;SDS011;32138;50.966;6.968;2023-06-22T05:07:11;18.77;;;9.98;;
46439;SDS011;32138;50.966;6.968;2023-06-22T05:08:42;10.65;;;9.60;;
46439;SDS011;32138;50.966;6.968;2023-06-22T05:10:13;14.18;;;9.60;;
46439;SDS011;32138;50.966;6.968;2023-06-22T05:11:45;13.75;;;10.00;;
46439;SDS011;32138;50.966;6.968;2023-06-22T05:13:15;12.60;;;9.50;;
46439;SDS011;32138;50.966;6.968;2023-06-22T05:14:46;11.02;;;9.93;;
46439;SDS011;32138;50.966;6.968;2023-06-22T05:16:17;9.95;;;8.68;;
46439;SDS011;32138;50.966;6.968;2023-06-22T05:17:53;11.23;;;9.38;;
46439;SDS011;32138;50.966;6.968;2023-06-22T05:19:24;14.38;;;9.48;;
46439;SDS011;32138;50.966;6.968;2023-06-22T05:21:01;11.05;;;8.63;;
46439;SDS011;32138;50.966;6.968;2023-06-22T05:22:33;10.98;;;8.48;;
46439;SDS011;32138;50.966;6.968;2023-06-22T05:24:03;9.35;;;8.55;;
46439;SDS011;32138;50.966;6.968;2023-06-22T05:25:35;13.48;;;9.60;;
46439;SDS011;32138;50.966;6.968;2023-06-22T05:27:05;12.55;;;8.07;;
46439;SDS011;32138;50.966;6.968;2023-06-22T05:28:36;10.00;;;9.00;;
46439;SDS011;32138;50.966;6.968;2023-06-22T05:30:07;9.35;;;8.25;;
46439;SDS011;32138;50.966;6.968;2023-06-22T05:31:39;11.55;;;9.48;;
46439;SDS011;32138;50.966;6.968;2023-06-22T05:33:10;13.10;;;8.80;;
46439;SDS011;32138;50.966;6.968;2023-06-22T05:34:41;9.82;;;8.82;;
46439;SDS011;32138;50.966;6.968;2023-06-22T05:36:12;10.45;;;8.88;;
46439;SDS011;32138;50.966;6.968;2023-06-22T05:37:43;9.60;;;8.70;;
46439;SDS011;32138;50.966;6.968;2023-06-22T05:39:14;11.30;;;9.20;;
46439;SDS011;32138;50.966;6.968;2023-06-22T05:40:45;10.55;;;9.50;;
46439;SDS011;32138;50.966;6.968;2023-06-22T05:42:16;10.55;;;9.45;;
46439;SDS011;32138;50.966;6.968;2023-06-22T05:43:47;9.63;;;8.60;;
46439;SDS011;32138;50.966;6.968;2023-06-22T05:45:18;12.70;;;8.57;;
46439;SDS011;32138;50.966;6.968;2023-06-22T05:46:49;9.80;;;8.80;;
46439;SDS011;32138;50.966;6.968;2023-06-22T05:48:19;11.27;;;9.70;;
46439;SDS011;32138;50.966;6.968;2023-06-22T05:49:50;11.77;;;9.48;;
46439;SDS011;32138;50.966;6.968;2023-06-22T05:51:21;11.13;;;8.57;;
46439;SDS011;32138;50.966;6.968;2023-06-22T05:52:52;11.98;;;9.50;;
46439;SDS011;32138;50.966;6.968;2023-06-22T05:54:22;9.90;;;8.90;;
46439;SDS011;32138;50.966;6.968;2023-06-22T05:55:53;11.27;;;8.65;;
46439;SDS011;32138;50.966;6.968;2023-06-22T05:57:24;9.32;;;8.43;;
46439;SDS011;32138;50.966;6.968;2023-06-22T05:58:55;10.15;;;9.10;;
46439;SDS011;32138;50.966;6.968;2023-06-22T06:00:26;8.95;;;8.13;;
46439;SDS011;32138;50.966;6.968;2023-06-22T06:01:56;9.57;;;8.57;;
46439;SDS011;32138;50.966;6.968;2023-06-22T06:03:27;9.45;;;8.48;;
46439;SDS011;32138;50.966;6.968;2023-06-22T06:04:58;10.00;;;9.00;;
46439;SDS011;32138;50.966;6.968;2023-06-22T06:06:29;12.23;;;8.70;;
46439;SDS011;32138;50.966;6.968;2023-06-22T06:08:00;10.45;;;8.60;;
46439;SDS011;32138;50.966;6.968;2023-06-22T06:09:34;10.07;;;8.68;;
46439;SDS011;32138;50.966;6.968;2023-06-22T06:11:05;9.90;;;9.00;;
46439;SDS011;32138;50.966;6.968;2023-06-22T06:12:36;10.13;;;8.50;;
46439;SDS011;32138;50.966;6.968;2023-06-22T06:14:07;10.35;;;7.47;;
46439;SDS011;32138;50.966;6.968;2023-06-22T06:15:37;8.93;;;8.02;;
46439;SDS011;32138;50.966;6.968;2023-06-22T06:17:08;14.30;;;10.05;;
46439;SDS011;32138;50.966;6.968;2023-06-22T06:18:39;11.05;;;9.88;;
46439;SDS011;32138;50.966;6.968;2023-06-22T06:20:10;9.90;;;8.90;;
46439;SDS011;32138;50.966;6.968;2023-06-22T06:21:42;10.98;;;9.25;;
46439;SDS011;32138;50.966;6.968;2023-06-22T06:23:12;11.32;;;9.13;;
46439;SDS011;32138;50.966;6.968;2023-06-22T06:24:43;10.68;;;9.48;;
46439;SDS011;32138;50.966;6.968;2023-06-22T06:26:14;10.18;;;9.13;;
46439;SDS011;32138;50.966;6.968;2023-06-22T06:27:46;11.13;;;10.02;;
46439;SDS011;32138;50.966;6.968;2023-06-22T06:29:18;10.15;;;8.60;;
46439;SDS011;32138;50.966;6.968;2023-06-22T06:30:48;10.05;;;9.05;;
46439;SDS011;32138;50.966;6.968;2023-06-22T06:32:21;9.43;;;8.57;;
46439;SDS011;32138;50.966;6.968;2023-06-22T06:33:52;12.20;;;10.60;;
46439;SDS011;32138;50.966;6.968;2023-06-22T06:35:24;13.27;;;9.75;;
46439;SDS011;32138;50.966;6.968;2023-06-22T06:36:54;10.52;;;9.52;;
46439;SDS011;32138;50.966;6.968;2023-06-22T06:38:25;11.43;;;9.82;;
46439;SDS011;32138;50.966;6.968;2023-06-22T06:39:56;9.65;;;8.65;;
46439;SDS011;32138;50.966;6.968;2023-06-22T06:41:28;11.68;;;9.43;;
46439;SDS011;32138;50.966;6.968;2023-06-22T06:42:58;11.20;;;10.13;;
46439;SDS011;32138;50.966;6.968;2023-06-22T06:44:29;10.95;;;9.85;;
46439;SDS011;32138;50.966;6.968;2023-06-22T06:46:00;10.02;;;9.05;;
46439;SDS011;32138;50.966;6.968;2023-06-22T06:47:33;10.30;;;9.13;;
46439;SDS011;32138;50.966;6.968;2023-06-22T06:49:04;11.70;;;10.65;;
46439;SDS011;32138;50.966;6.968;2023-06-22T06:50:34;10.45;;;9.45;;
46439;SDS011;32138;50.966;6.968;2023-06-22T06:52:05;9.98;;;8.98;;
46439;SDS011;32138;50.966;6.968;2023-06-22T06:53:37;10.98;;;9.73;;
46439;SDS011;32138;50.966;6.968;2023-06-22T06:55:09;10.07;;;9.18;;
46439;SDS011;32138;50.966;6.968;2023-06-22T06:56:41;10.45;;;9.18;;
46439;SDS011;32138;50.966;6.968;2023-06-22T06:58:18;9.73;;;8.63;;
46439;SDS011;32138;50.966;6.968;2023-06-22T06:59:49;10.00;;;9.20;;
46439;SDS011;32138;50.966;6.968;2023-06-22T07:01:20;10.10;;;9.02;;
46439;SDS011;32138;50.966;6.968;2023-06-22T07:02:51;9.70;;;8.73;;
46439;SDS011;32138;50.966;6.968;2023-06-22T07:04:22;10.30;;;9.30;;
46439;SDS011;32138;50.966;6.968;2023-06-22T07:05:53;9.65;;;8.82;;
46439;SDS011;32138;50.966;6.968;2023-06-22T07:07:24;9.68;;;8.80;;
46439;SDS011;32138;50.966;6.968;2023-06-22T07:08:55;9.48;;;8.57;;
46439;SDS011;32138;50.966;6.968;2023-06-22T07:10:26;9.88;;;8.93;;
46439;SDS011;32138;50.966;6.968;2023-06-22T07:11:57;12.70;;;9.75;;
46439;SDS011;32138;50.966;6.968;2023-06-22T07:13:27;10.80;;;9.38;;
46439;SDS011;32138;50.966;6.968;2023-06-22T07:15:05;11.65;;;9.05;;
46439;SDS011;32138;50.966;6.968;2023-06-22T07:16:38;10.50;;;9.43;;
46439;SDS011;32138;50.966;6.968;2023-06-22T07:18:09;9.45;;;8.52;;
46439;SDS011;32138;50.966;6.968;2023-06-22T07:19:42;14.57;;;8.70;;
46439;SDS011;32138;50.966;6.968;2023-06-22T07:21:13;11.48;;;8.65;;
46439;SDS011;32138;50.966;6.968;2023-06-22T07:22:44;10.95;;;9.18;;
46439;SDS011;32138;50.966;6.968;2023-06-22T07:24:15;11.50;;;8.88;;
46439;SDS011;32138;50.966;6.968;2023-06-22T07:25:46;9.82;;;8.90;;
46439;SDS011;32138;50.966;6.968;2023-06-22T07:27:17;10.30;;;9.25;;
46439;SDS011;32138;50.966;6.968;2023-06-22T07:28:49;9.98;;;8.65;;
46439;SDS011;32138;50.966;6.968;2023-06-22T07:30:20;11.88;;;9.60;;
46439;SDS011;32138;50.966;6.968;2023-06-22T07:31:54;11.18;;;8.98;;
46439;SDS011;32138;50.966;6.968;2023-06-22T07:33:26;11.00;;;9.55;;
46439;SDS011;32138;50.966;6.968;2023-06-22T07:34:57;11.27;;;9.75;;
46439;SDS011;32138;50.966;6.968;2023-06-22T07:36:28;10.82;;;9.82;;
46439;SDS011;32138;50.966;6.968;2023-06-22T07:38:00;13.63;;;9.80;;
46439;SDS011;32138;50.966;6.968;2023-06-22T07:39:31;10.35;;;9.32;;
46439;SDS011;32138;50.966;6.968;2023-06-22T07:41:02;10.63;;;9.23;;
46439;SDS011;32138;50.966;6.968;2023-06-22T07:42:38;9.75;;;8.85;;
46439;SDS011;32138;50.966;6.968;2023-06-22T07:44:12;9.52;;;8.55;;
46439;SDS011;32138;50.966;6.968;2023-06-22T07:45:47;9.88;;;8.88;;
46439;SDS011;32138;50.966;6.968;2023-06-22T07:47:22;9.15;;;8.25;;
46439;SDS011;32138;50.966;6.968;2023-06-22T07:48:56;9.77;;;8.88;;
46439;SDS011;32138;50.966;6.968;2023-06-22T07:50:29;10.27;;;9.27;;
46439;SDS011;32138;50.966;6.968;2023-06-22T07:52:01;9.70;;;8.70;;
46439;SDS011;32138;50.966;6.968;2023-06-22T07:53:32;10.02;;;9.00;;
46439;SDS011;32138;50.966;6.968;2023-06-22T07:55:03;10.50;;;9.50;;
46439;SDS011;32138;50.966;6.968;2023-06-22T07:56:34;10.73;;;9.73;;
46439;SDS011;32138;50.966;6.968;2023-06-22T07:58:06;12.68;;;9.35;;
46439;SDS011;32138;50.966;6.968;2023-06-22T07:59:37;9.73;;;8.68;;
46439;SDS011;32138;50.966;6.968;2023-06-22T08:01:08;11.60;;;9.20;;
46439;SDS011;32138;50.966;6.968;2023-06-22T08:02:39;9.73;;;8.68;;
46439;SDS011;32138;50.966;6.968;2023-06-22T08:04:11;12.90;;;8.85;;
46439;SDS011;32138;50.966;6.968;2023-06-22T08:05:41;10.65;;;9.00;;
46439;SDS011;32138;50.966;6.968;2023-06-22T08:07:12;8.88;;;7.72;;
46439;SDS011;32138;50.966;6.968;2023-06-22T08:08:43;9.90;;;8.05;;
46439;SDS011;32138;50.966;6.968;2023-06-22T08:10:18;9.68;;;8.73;;
46439;SDS011;32138;50.966;6.968;2023-06-22T08:11:49;9.05;;;8.25;;
46439;SDS011;32138;50.966;6.968;2023-06-22T08:13:20;9.35;;;8.45;;
46439;SDS011;32138;50.966;6.968;2023-06-22T08:14:51;8.90;;;8.00;;
46439;SDS011;32138;50.966;6.968;2023-06-22T08:16:21;8.57;;;7.78;;
46439;SDS011;32138;50.966;6.968;2023-06-22T08:17:52;8.82;;;8.02;;
46439;SDS011;32138;50.966;6.968;2023-06-22T08:19:23;9.45;;;8.07;;
46439;SDS011;32138;50.966;6.968;2023-06-22T08:20:54;8.93;;;8.02;;
46439;SDS011;32138;50.966;6.968;2023-06-22T08:22:25;9.60;;;8.70;;
46439;SDS011;32138;50.966;6.968;2023-06-22T08:23:55;10.02;;;9.02;;
46439;SDS011;32138;50.966;6.968;2023-06-22T08:25:26;9.32;;;8.23;;
46439;SDS011;32138;50.966;6.968;2023-06-22T08:26:57;8.30;;;7.60;;
46439;SDS011;32138;50.966;6.968;2023-06-22T08:28:27;9.65;;;8.75;;
46439;SDS011;32138;50.966;6.968;2023-06-22T08:29:59;9.50;;;8.57;;
46439;SDS011;32138;50.966;6.968;2023-06-22T08:31:30;9.10;;;8.20;;
46439;SDS011;32138;50.966;6.968;2023-06-22T08:33:03;9.10;;;8.30;;
46439;SDS011;32138;50.966;6.968;2023-06-22T08:34:34;10.60;;;8.75;;
46439;SDS011;32138;50.966;6.968;2023-06-22T08:36:05;9.32;;;8.43;;
46439;SDS011;32138;50.966;6.968;2023-06-22T08:37:36;10.13;;;9.23;;
46439;SDS011;32138;50.966;6.968;2023-06-22T08:39:08;8.90;;;8.07;;
46439;SDS011;32138;50.966;6.968;2023-06-22T08:40:39;11.23;;;8.32;;
46439;SDS011;32138;50.966;6.968;2023-06-22T08:42:10;9.45;;;8.55;;
46439;SDS011;32138;50.966;6.968;2023-06-22T08:43:41;9.63;;;8.73;;
46439;SDS011;32138;50.966;6.968;2023-06-22T08:45:13;8.15;;;7.38;;
46439;SDS011;32138;50.966;6.968;2023-06-22T08:46:44;8.95;;;8.05;;
46439;SDS011;32138;50.966;6.968;2023-06-22T08:48:15;10.05;;;9.05;;
46439;SDS011;32138;50.966;6.968;2023-06-22T08:49:46;10.15;;;9.15;;
46439;SDS011;32138;50.966;6.968;2023-06-22T08:51:17;13.73;;;8.95;;
46439;SDS011;32138;50.966;6.968;2023-06-22T08:52:48;10.88;;;9.88;;
46439;SDS011;32138;50.966;6.968;2023-06-22T08:54:19;10.38;;;9.30;;
46439;SDS011;32138;50.966;6.968;2023-06-22T08:55:49;9.43;;;8.52;;
46439;SDS011;32138;50.966;6.968;2023-06-22T08:57:21;10.60;;;9.60;;
46439;SDS011;32138;50.966;6.968;2023-06-22T08:58:52;10.30;;;9.30;;
46439;SDS011;32138;50.966;6.968;2023-06-22T09:00:22;9.23;;;8.27;;
46439;SDS011;32138;50.966;6.968;2023-06-22T09:01:53;9.57;;;8.65;;
46439;SDS011;32138;50.966;6.968;2023-06-22T09:03:24;9.43;;;8.63;;
46439;SDS011;32138;50.966;6.968;2023-06-22T09:04:59;10.23;;;8.70;;
46439;SDS011;32138;50.966;6.968;2023-06-22T09:06:33;10.70;;;9.27;;
46439;SDS011;32138;50.966;6.968;2023-06-22T09:08:04;10.23;;;9.27;;
46439;SDS011;32138;50.966;6.968;2023-06-22T09:09:34;9.02;;;8.13;;
46439;SDS011;32138;50.966;6.968;2023-06-22T09:11:05;9.75;;;8.52;;
46439;SDS011;32138;50.966;6.968;2023-06-22T09:12:36;10.23;;;9.18;;
46439;SDS011;32138;50.966;6.968;2023-06-22T09:14:08;10.77;;;9.77;;
46439;SDS011;32138;50.966;6.968;2023-06-22T09:15:39;11.20;;;10.10;;
46439;SDS011;32138;50.966;6.968;2023-06-22T09:17:10;10.23;;;9.27;;
46439;SDS011;32138;50.966;6.968;2023-06-22T09:18:42;8.95;;;8.15;;
46439;SDS011;32138;50.966;6.968;2023-06-22T09:20:15;10.32;;;8.70;;
46439;SDS011;32138;50.966;6.968;2023-06-22T09:21:46;10.75;;;9.27;;